Indianapolis, Indiana
Current Conditions -  °F | °C
As of 3:54 AM on Tuesday 21 Oct 2014 (Local Time) from KIND Reporting Station
Broken Clouds Broken Clouds  
Wind Chill:   Ceiling: 6000
Heat Index:   Visibility: 10mi
Dew Point:   Wind: 8mph
Humidity: 90%   Direction: 330°NNW
Pressure: 29.98"   Gusts: NA
Location:  39.77°N, 86.15°W
Report Text: KIND 210754Z 33007KT 10SM BKN060 08/07 A2998 RMK AO2 SLP150 T00830067
Loading
Personal Weather Stations






























Interactive Weather Map New forecast layout! Learn more

10-Day Weather Forecast

Advertisements
Track Severe Weather on mobile